sensor_id;sensor_type;location;lat;lon;timestamp;pressure;altitude;pressure_sealevel;temperature;humidity
7662;BME280;30314;48.184;11.510;2023-03-23T00:02:28;95476.09;;;9.16;77.54
7662;BME280;30314;48.184;11.510;2023-03-23T00:04:53;95459.78;;;9.14;77.13
7662;BME280;30314;48.184;11.510;2023-03-23T00:07:23;95464.72;;;9.21;77.84
7662;BME280;30314;48.184;11.510;2023-03-23T00:09:53;95471.06;;;9.39;77.55
7662;BME280;30314;48.184;11.510;2023-03-23T00:12:26;95475.34;;;9.35;77.90
7662;BME280;30314;48.184;11.510;2023-03-23T00:15:04;95461.84;;;9.17;77.24
7662;BME280;30314;48.184;11.510;2023-03-23T00:17:31;95470.22;;;9.24;77.69
7662;BME280;30314;48.184;11.510;2023-03-23T00:20:00;95453.19;;;9.16;77.88
7662;BME280;30314;48.184;11.510;2023-03-23T00:22:27;95471.31;;;9.18;78.00
7662;BME280;30314;48.184;11.510;2023-03-23T00:24:54;95440.00;;;8.97;78.31
7662;BME280;30314;48.184;11.510;2023-03-23T00:27:20;95473.44;;;9.21;78.78
7662;BME280;30314;48.184;11.510;2023-03-23T00:29:49;95477.91;;;9.21;79.17
7662;BME280;30314;48.184;11.510;2023-03-23T00:32:19;95470.31;;;9.14;78.76
7662;BME280;30314;48.184;11.510;2023-03-23T00:34:46;95458.81;;;9.10;79.00
7662;BME280;30314;48.184;11.510;2023-03-23T00:37:14;95457.16;;;8.95;79.99
7662;BME280;30314;48.184;11.510;2023-03-23T00:39:41;95441.72;;;8.88;79.59
7662;BME280;30314;48.184;11.510;2023-03-23T00:42:09;95455.38;;;8.90;80.72
7662;BME280;30314;48.184;11.510;2023-03-23T00:44:35;95447.81;;;8.83;80.31
7662;BME280;30314;48.184;11.510;2023-03-23T00:47:02;95449.38;;;8.84;80.84
7662;BME280;30314;48.184;11.510;2023-03-23T00:49:30;95460.63;;;8.90;80.27
7662;BME280;30314;48.184;11.510;2023-03-23T00:51:57;95453.31;;;8.87;81.04
7662;BME280;30314;48.184;11.510;2023-03-23T00:54:24;95473.25;;;8.93;81.36
7662;BME280;30314;48.184;11.510;2023-03-23T00:56:50;95457.00;;;8.86;81.16
7662;BME280;30314;48.184;11.510;2023-03-23T00:59:15;95466.19;;;8.88;82.73
7662;BME280;30314;48.184;11.510;2023-03-23T01:01:43;95449.56;;;8.93;81.82
7662;BME280;30314;48.184;11.510;2023-03-23T01:04:09;95471.13;;;8.95;82.13
7662;BME280;30314;48.184;11.510;2023-03-23T01:06:39;95452.81;;;8.85;82.26
7662;BME280;30314;48.184;11.510;2023-03-23T01:09:23;95447.09;;;8.78;83.11
7662;BME280;30314;48.184;11.510;2023-03-23T01:11:50;95424.81;;;8.70;83.34
7662;BME280;30314;48.184;11.510;2023-03-23T01:14:18;95465.00;;;8.81;83.69
7662;BME280;30314;48.184;11.510;2023-03-23T01:16:44;95429.22;;;8.55;83.98
7662;BME280;30314;48.184;11.510;2023-03-23T01:19:10;95456.66;;;8.73;85.15
7662;BME280;30314;48.184;11.510;2023-03-23T01:21:36;95449.88;;;8.67;85.45
7662;BME280;30314;48.184;11.510;2023-03-23T01:24:01;95449.09;;;8.67;85.74
7662;BME280;30314;48.184;11.510;2023-03-23T01:26:28;95463.97;;;8.77;86.01
7662;BME280;30314;48.184;11.510;2023-03-23T01:28:54;95460.13;;;8.69;86.38
7662;BME280;30314;48.184;11.510;2023-03-23T01:31:24;95453.50;;;8.71;87.49
7662;BME280;30314;48.184;11.510;2023-03-23T01:33:52;95449.81;;;8.72;87.78
7662;BME280;30314;48.184;11.510;2023-03-23T01:36:29;95435.16;;;8.66;87.99
7662;BME280;30314;48.184;11.510;2023-03-23T01:39:01;95446.97;;;8.69;87.53
7662;BME280;30314;48.184;11.510;2023-03-23T01:41:29;95427.41;;;8.56;88.32
7662;BME280;30314;48.184;11.510;2023-03-23T01:44:04;95454.13;;;8.63;87.83
7662;BME280;30314;48.184;11.510;2023-03-23T01:46:44;95450.38;;;8.69;88.65
7662;BME280;30314;48.184;11.510;2023-03-23T01:49:23;95446.47;;;8.67;89.05
7662;BME280;30314;48.184;11.510;2023-03-23T01:51:56;95461.69;;;8.70;90.22
7662;BME280;30314;48.184;11.510;2023-03-23T01:54:23;95444.25;;;8.55;89.12
7662;BME280;30314;48.184;11.510;2023-03-23T01:56:57;95453.72;;;8.56;89.33
7662;BME280;30314;48.184;11.510;2023-03-23T01:59:26;95444.25;;;8.55;90.15
7662;BME280;30314;48.184;11.510;2023-03-23T02:02:12;95450.34;;;8.50;89.59
7662;BME280;30314;48.184;11.510;2023-03-23T02:04:38;95449.13;;;8.42;90.05
7662;BME280;30314;48.184;11.510;2023-03-23T02:07:04;95431.91;;;8.31;90.55
7662;BME280;30314;48.184;11.510;2023-03-23T02:09:30;95429.59;;;8.24;91.51
7662;BME280;30314;48.184;11.510;2023-03-23T02:11:56;95439.72;;;8.36;91.49
7662;BME280;30314;48.184;11.510;2023-03-23T02:14:24;95438.09;;;8.40;92.29
7662;BME280;30314;48.184;11.510;2023-03-23T02:22:32;95438.19;;;8.54;91.58
7662;BME280;30314;48.184;11.510;2023-03-23T02:25:28;95427.88;;;8.58;91.05
7662;BME280;30314;48.184;11.510;2023-03-23T02:31:00;95424.41;;;8.63;92.68
7662;BME280;30314;48.184;11.510;2023-03-23T02:33:35;95409.00;;;8.51;91.72
7662;BME280;30314;48.184;11.510;2023-03-23T02:38:55;95423.25;;;8.50;91.53
7662;BME280;30314;48.184;11.510;2023-03-23T02:41:34;95423.44;;;8.34;92.79
7662;BME280;30314;48.184;11.510;2023-03-23T02:44:03;95431.81;;;8.36;94.09
7662;BME280;30314;48.184;11.510;2023-03-23T02:46:30;95428.19;;;8.32;92.74
7662;BME280;30314;48.184;11.510;2023-03-23T02:48:57;95429.19;;;8.36;92.78
7662;BME280;30314;48.184;11.510;2023-03-23T02:51:24;95411.06;;;8.10;93.55
7662;BME280;30314;48.184;11.510;2023-03-23T02:53:51;95419.41;;;8.17;93.65
7662;BME280;30314;48.184;11.510;2023-03-23T02:56:20;95429.94;;;8.17;93.81
7662;BME280;30314;48.184;11.510;2023-03-23T02:58:48;95418.22;;;8.04;94.86
7662;BME280;30314;48.184;11.510;2023-03-23T03:03:57;95410.47;;;7.94;95.04
7662;BME280;30314;48.184;11.510;2023-03-23T03:11:47;95411.41;;;7.79;96.67
7662;BME280;30314;48.184;11.510;2023-03-23T03:14:20;95403.94;;;7.86;96.46
7662;BME280;30314;48.184;11.510;2023-03-23T03:16:54;95413.38;;;7.93;96.60
7662;BME280;30314;48.184;11.510;2023-03-23T03:19:29;95407.09;;;7.88;97.48
7662;BME280;30314;48.184;11.510;2023-03-23T03:21:58;95412.38;;;7.88;98.43
7662;BME280;30314;48.184;11.510;2023-03-23T03:24:36;95399.31;;;7.78;98.68
7662;BME280;30314;48.184;11.510;2023-03-23T03:27:04;95405.41;;;7.98;99.17
7662;BME280;30314;48.184;11.510;2023-03-23T03:29:42;95383.53;;;8.02;95.84
7662;BME280;30314;48.184;11.510;2023-03-23T03:32:17;95414.94;;;8.42;95.40
7662;BME280;30314;48.184;11.510;2023-03-23T03:34:44;95413.78;;;8.49;94.56
7662;BME280;30314;48.184;11.510;2023-03-23T03:37:11;95406.53;;;8.40;94.72
7662;BME280;30314;48.184;11.510;2023-03-23T03:39:38;95435.63;;;8.49;94.68
7662;BME280;30314;48.184;11.510;2023-03-23T03:42:04;95408.72;;;8.33;95.45
7662;BME280;30314;48.184;11.510;2023-03-23T03:44:32;95410.34;;;8.29;95.13
7662;BME280;30314;48.184;11.510;2023-03-23T03:46:58;95427.69;;;8.30;95.48
7662;BME280;30314;48.184;11.510;2023-03-23T03:49:23;95422.81;;;8.18;95.46
7662;BME280;30314;48.184;11.510;2023-03-23T03:51:49;95421.72;;;8.00;95.94
7662;BME280;30314;48.184;11.510;2023-03-23T03:54:20;95440.34;;;8.03;96.41
7662;BME280;30314;48.184;11.510;2023-03-23T03:56:46;95426.03;;;7.85;96.60
7662;BME280;30314;48.184;11.510;2023-03-23T03:59:46;95420.59;;;7.82;97.58
7662;BME280;30314;48.184;11.510;2023-03-23T04:02:34;95431.84;;;7.87;98.04
7662;BME280;30314;48.184;11.510;2023-03-23T04:05:00;95429.75;;;7.84;98.61
7662;BME280;30314;48.184;11.510;2023-03-23T04:07:30;95439.19;;;7.85;98.69
7662;BME280;30314;48.184;11.510;2023-03-23T04:09:56;95445.91;;;7.97;98.84
7662;BME280;30314;48.184;11.510;2023-03-23T04:12:22;95426.00;;;7.91;98.80
7662;BME280;30314;48.184;11.510;2023-03-23T04:14:57;95434.91;;;7.95;99.29
7662;BME280;30314;48.184;11.510;2023-03-23T04:17:28;95433.34;;;7.94;99.34
7662;BME280;30314;48.184;11.510;2023-03-23T04:19:54;95446.88;;;8.06;98.76
7662;BME280;30314;48.184;11.510;2023-03-23T04:22:24;95446.97;;;8.01;99.48
7662;BME280;30314;48.184;11.510;2023-03-23T04:24:59;95423.72;;;7.84;100.00
7662;BME280;30314;48.184;11.510;2023-03-23T04:27:27;95436.03;;;7.88;100.00
7662;BME280;30314;48.184;11.510;2023-03-23T04:29:55;95444.59;;;7.99;100.00
7662;BME280;30314;48.184;11.510;2023-03-23T04:32:41;95439.41;;;7.94;100.00
7662;BME280;30314;48.184;11.510;2023-03-23T04:35:09;95453.44;;;8.09;100.00
7662;BME280;30314;48.184;11.510;2023-03-23T04:37:40;95451.16;;;8.02;100.00
7662;BME280;30314;48.184;11.510;2023-03-23T04:40:08;95456.41;;;8.02;99.78
7662;BME280;30314;48.184;11.510;2023-03-23T04:42:42;95455.34;;;8.03;100.00
7662;BME280;30314;48.184;11.510;2023-03-23T04:45:44;95422.88;;;7.88;100.00
7662;BME280;30314;48.184;11.510;2023-03-23T04:48:12;95458.91;;;8.12;100.00
7662;BME280;30314;48.184;11.510;2023-03-23T04:50:49;95455.78;;;8.10;100.00
7662;BME280;30314;48.184;11.510;2023-03-23T04:53:22;95433.34;;;7.94;100.00
7662;BME280;30314;48.184;11.510;2023-03-23T04:55:48;95461.28;;;8.14;100.00
7662;BME280;30314;48.184;11.510;2023-03-23T04:58:16;95466.81;;;8.12;100.00
7662;BME280;30314;48.184;11.510;2023-03-23T05:00:57;95444.03;;;8.02;100.00
7662;BME280;30314;48.184;11.510;2023-03-23T05:03:24;95450.03;;;8.08;100.00
7662;BME280;30314;48.184;11.510;2023-03-23T05:05:53;95459.16;;;8.16;100.00
7662;BME280;30314;48.184;11.510;2023-03-23T05:08:23;95438.19;;;8.06;100.00
7662;BME280;30314;48.184;11.510;2023-03-23T05:10:57;95460.16;;;8.20;100.00
7662;BME280;30314;48.184;11.510;2023-03-23T05:13:24;95455.44;;;8.17;100.00
7662;BME280;30314;48.184;11.510;2023-03-23T05:15:53;95466.13;;;8.26;100.00
7662;BME280;30314;48.184;11.510;2023-03-23T05:18:20;95464.53;;;8.30;100.00
7662;BME280;30314;48.184;11.510;2023-03-23T05:20:46;95462.41;;;8.32;100.00
7662;BME280;30314;48.184;11.510;2023-03-23T05:23:16;95457.75;;;8.24;100.00
7662;BME280;30314;48.184;11.510;2023-03-23T05:25:44;95461.16;;;8.24;100.00
7662;BME280;30314;48.184;11.510;2023-03-23T05:28:14;95458.56;;;8.19;100.00
7662;BME280;30314;48.184;11.510;2023-03-23T05:30:40;95479.59;;;8.24;100.00
7662;BME280;30314;48.184;11.510;2023-03-23T05:33:08;95457.34;;;8.11;100.00
7662;BME280;30314;48.184;11.510;2023-03-23T05:35:52;95484.00;;;8.29;100.00
7662;BME280;30314;48.184;11.510;2023-03-23T05:38:24;95483.94;;;8.34;100.00
7662;BME280;30314;48.184;11.510;2023-03-23T05:40:50;95497.03;;;8.39;100.00
7662;BME280;30314;48.184;11.510;2023-03-23T05:43:23;95466.09;;;8.31;100.00
7662;BME280;30314;48.184;11.510;2023-03-23T05:46:07;95461.31;;;8.57;99.76
7662;BME280;30314;48.184;11.510;2023-03-23T05:48:33;95447.97;;;8.92;97.23
7662;BME280;30314;48.184;11.510;2023-03-23T05:51:00;95416.06;;;9.13;94.14
7662;BME280;30314;48.184;11.510;2023-03-23T05:53:28;95407.59;;;9.16;94.16
7662;BME280;30314;48.184;11.510;2023-03-23T05:55:58;95403.53;;;9.24;93.93
7662;BME280;30314;48.184;11.510;2023-03-23T05:58:43;95394.06;;;9.23;94.49
7662;BME280;30314;48.184;11.510;2023-03-23T06:01:09;95392.41;;;9.46;91.83
7662;BME280;30314;48.184;11.510;2023-03-23T06:03:40;95402.31;;;9.35;92.11
7662;BME280;30314;48.184;11.510;2023-03-23T06:06:20;95392.41;;;9.46;91.06
7662;BME280;30314;48.184;11.510;2023-03-23T06:08:58;95403.75;;;9.61;90.05
7662;BME280;30314;48.184;11.510;2023-03-23T06:11:40;95403.56;;;9.57;89.46
7662;BME280;30314;48.184;11.510;2023-03-23T06:14:27;95406.88;;;9.63;89.68
7662;BME280;30314;48.184;11.510;2023-03-23T06:16:52;95425.84;;;9.65;89.68
7662;BME280;30314;48.184;11.510;2023-03-23T06:19:18;95411.03;;;9.50;90.49
7662;BME280;30314;48.184;11.510;2023-03-23T06:22:00;95436.38;;;9.65;92.22
7662;BME280;30314;48.184;11.510;2023-03-23T06:24:42;95436.38;;;9.65;90.67
7662;BME280;30314;48.184;11.510;2023-03-23T06:27:07;95440.69;;;9.61;93.47
7662;BME280;30314;48.184;11.510;2023-03-23T06:29:34;95421.22;;;9.56;92.97
7662;BME280;30314;48.184;11.510;2023-03-23T06:32:02;95425.19;;;9.73;90.25
7662;BME280;30314;48.184;11.510;2023-03-23T06:34:30;95446.78;;;9.89;90.61
7662;BME280;30314;48.184;11.510;2023-03-23T06:37:16;95443.25;;;9.94;88.18
7662;BME280;30314;48.184;11.510;2023-03-23T06:39:51;95419.44;;;9.99;86.67
7662;BME280;30314;48.184;11.510;2023-03-23T06:42:23;95429.50;;;10.25;85.71
7662;BME280;30314;48.184;11.510;2023-03-23T06:45:02;95413.19;;;10.37;83.45
7662;BME280;30314;48.184;11.510;2023-03-23T06:47:31;95400.84;;;10.18;83.26
7662;BME280;30314;48.184;11.510;2023-03-23T06:49:58;95421.19;;;10.32;84.25
7662;BME280;30314;48.184;11.510;2023-03-23T06:52:26;95403.50;;;10.32;82.53
7662;BME280;30314;48.184;11.510;2023-03-23T06:54:52;95393.81;;;10.27;82.68
7662;BME280;30314;48.184;11.510;2023-03-23T06:57:19;95409.03;;;10.58;80.71
7662;BME280;30314;48.184;11.510;2023-03-23T06:59:47;95409.34;;;10.57;82.78
7662;BME280;30314;48.184;11.510;2023-03-23T07:02:14;95397.72;;;10.44;83.05
7662;BME280;30314;48.184;11.510;2023-03-23T07:04:41;95398.88;;;10.52;82.51
7662;BME280;30314;48.184;11.510;2023-03-23T07:07:14;95380.66;;;10.64;79.80
7662;BME280;30314;48.184;11.510;2023-03-23T07:09:49;95400.88;;;10.83;79.51
7662;BME280;30314;48.184;11.510;2023-03-23T07:12:18;95401.75;;;10.92;78.87
7662;BME280;30314;48.184;11.510;2023-03-23T07:14:47;95427.03;;;11.07;78.66
7662;BME280;30314;48.184;11.510;2023-03-23T07:17:12;95421.38;;;11.37;76.31
7662;BME280;30314;48.184;11.510;2023-03-23T07:19:48;95402.91;;;11.23;76.29
7662;BME280;30314;48.184;11.510;2023-03-23T07:22:15;95414.63;;;11.53;75.21
7662;BME280;30314;48.184;11.510;2023-03-23T07:24:46;95414.72;;;12.52;70.63
7662;BME280;30314;48.184;11.510;2023-03-23T07:27:24;95417.44;;;12.96;65.73
7662;BME280;30314;48.184;11.510;2023-03-23T07:29:53;95408.53;;;12.74;66.40
7662;BME280;30314;48.184;11.510;2023-03-23T07:32:24;95398.50;;;12.62;66.33
7662;BME280;30314;48.184;11.510;2023-03-23T07:34:50;95388.50;;;12.42;66.62
7662;BME280;30314;48.184;11.510;2023-03-23T07:37:26;95413.94;;;12.69;67.04
7662;BME280;30314;48.184;11.510;2023-03-23T07:39:52;95413.38;;;13.07;64.53
7662;BME280;30314;48.184;11.510;2023-03-23T07:42:17;95423.34;;;13.02;64.53
7662;BME280;30314;48.184;11.510;2023-03-23T07:44:49;95416.66;;;12.95;64.68
7662;BME280;30314;48.184;11.510;2023-03-23T07:47:15;95410.56;;;12.77;64.81
7662;BME280;30314;48.184;11.510;2023-03-23T07:49:45;95375.75;;;12.52;65.37
7662;BME280;30314;48.184;11.510;2023-03-23T07:52:27;95407.09;;;12.59;66.36
7662;BME280;30314;48.184;11.510;2023-03-23T07:54:53;95396.31;;;12.55;65.21
7662;BME280;30314;48.184;11.510;2023-03-23T07:57:25;95411.72;;;12.45;68.43
7662;BME280;30314;48.184;11.510;2023-03-23T07:59:52;95413.00;;;12.47;65.98
7662;BME280;30314;48.184;11.510;2023-03-23T08:02:18;95408.97;;;12.59;65.63
7662;BME280;30314;48.184;11.510;2023-03-23T08:04:43;95401.78;;;12.59;65.34
7662;BME280;30314;48.184;11.510;2023-03-23T08:07:23;95403.50;;;12.55;64.35
7662;BME280;30314;48.184;11.510;2023-03-23T08:10:01;95393.53;;;12.52;66.09
7662;BME280;30314;48.184;11.510;2023-03-23T08:12:39;95409.09;;;12.62;65.11
7662;BME280;30314;48.184;11.510;2023-03-23T08:15:35;95405.81;;;12.57;66.04
7662;BME280;30314;48.184;11.510;2023-03-23T08:18:11;95400.22;;;12.58;66.18
7662;BME280;30314;48.184;11.510;2023-03-23T08:20:57;95420.88;;;12.88;64.30
7662;BME280;30314;48.184;11.510;2023-03-23T08:23:32;95395.00;;;12.85;63.74
7662;BME280;30314;48.184;11.510;2023-03-23T08:26:13;95400.44;;;12.88;63.50
7662;BME280;30314;48.184;11.510;2023-03-23T08:28:58;95412.44;;;12.77;64.25
7662;BME280;30314;48.184;11.510;2023-03-23T08:31:50;95440.19;;;12.88;67.26
7662;BME280;30314;48.184;11.510;2023-03-23T08:34:28;95439.09;;;12.89;66.99
7662;BME280;30314;48.184;11.510;2023-03-23T08:37:05;95453.13;;;12.99;72.88
7662;BME280;30314;48.184;11.510;2023-03-23T08:39:51;95442.06;;;13.05;71.92
7662;BME280;30314;48.184;11.510;2023-03-23T08:42:46;95443.97;;;13.22;69.86
7662;BME280;30314;48.184;11.510;2023-03-23T08:45:31;95434.91;;;13.15;66.63
7662;BME280;30314;48.184;11.510;2023-03-23T08:48:02;95449.88;;;13.37;66.31
7662;BME280;30314;48.184;11.510;2023-03-23T08:50:49;95443.47;;;13.47;65.17
7662;BME280;30314;48.184;11.510;2023-03-23T08:53:35;95447.63;;;13.83;60.72
7662;BME280;30314;48.184;11.510;2023-03-23T08:56:20;95447.56;;;14.01;59.19
7662;BME280;30314;48.184;11.510;2023-03-23T08:59:06;95464.66;;;13.82;60.58
7662;BME280;30314;48.184;11.510;2023-03-23T09:01:37;95447.59;;;13.92;60.91
7662;BME280;30314;48.184;11.510;2023-03-23T09:04:18;95466.44;;;14.17;60.74
7662;BME280;30314;48.184;11.510;2023-03-23T09:07:03;95453.28;;;14.29;60.36
7662;BME280;30314;48.184;11.510;2023-03-23T09:09:29;95407.63;;;13.97;64.59
7662;BME280;30314;48.184;11.510;2023-03-23T09:11:54;95465.09;;;14.41;61.92
7662;BME280;30314;48.184;11.510;2023-03-23T09:14:20;95468.38;;;14.46;63.64
7662;BME280;30314;48.184;11.510;2023-03-23T09:16:45;95480.41;;;14.74;60.04
7662;BME280;30314;48.184;11.510;2023-03-23T09:19:11;95487.28;;;14.75;60.55
7662;BME280;30314;48.184;11.510;2023-03-23T09:21:37;95473.56;;;14.94;60.80
7662;BME280;30314;48.184;11.510;2023-03-23T09:24:04;95496.28;;;15.13;60.17
7662;BME280;30314;48.184;11.510;2023-03-23T09:26:30;95493.72;;;15.25;56.40
7662;BME280;30314;48.184;11.510;2023-03-23T09:28:56;95484.69;;;15.17;57.83
7662;BME280;30314;48.184;11.510;2023-03-23T09:31:23;95489.06;;;15.34;59.96
7662;BME280;30314;48.184;11.510;2023-03-23T09:33:52;95464.03;;;15.14;59.32
7662;BME280;30314;48.184;11.510;2023-03-23T09:36:21;95478.50;;;15.26;59.70
7662;BME280;30314;48.184;11.510;2023-03-23T09:38:50;95487.34;;;15.39;57.82
7662;BME280;30314;48.184;11.510;2023-03-23T09:43:53;95484.34;;;15.61;53.30
7662;BME280;30314;48.184;11.510;2023-03-23T09:49:13;95463.34;;;15.47;55.95
7662;BME280;30314;48.184;11.510;2023-03-23T09:51:48;95483.31;;;15.87;58.70
7662;BME280;30314;48.184;11.510;2023-03-23T09:54:26;95468.13;;;15.88;53.28
7662;BME280;30314;48.184;11.510;2023-03-23T09:56:54;95486.59;;;16.05;55.57
7662;BME280;30314;48.184;11.510;2023-03-23T09:59:25;95491.38;;;16.12;54.83
7662;BME280;30314;48.184;11.510;2023-03-23T10:02:17;95493.41;;;16.40;52.28
7662;BME280;30314;48.184;11.510;2023-03-23T10:04:51;95497.44;;;16.46;52.10
7662;BME280;30314;48.184;11.510;2023-03-23T10:07:22;95480.44;;;16.51;52.34
7662;BME280;30314;48.184;11.510;2023-03-23T10:09:52;95498.00;;;16.52;53.56
7662;BME280;30314;48.184;11.510;2023-03-23T10:12:32;95492.09;;;16.34;53.73
7662;BME280;30314;48.184;11.510;2023-03-23T10:15:09;95487.31;;;16.27;54.11
7662;BME280;30314;48.184;11.510;2023-03-23T10:22:52;95499.75;;;16.23;51.78
7662;BME280;30314;48.184;11.510;2023-03-23T10:25:23;95488.59;;;16.09;52.67
7662;BME280;30314;48.184;11.510;2023-03-23T10:30:39;95504.91;;;16.07;51.67
7662;BME280;30314;48.184;11.510;2023-03-23T10:33:33;95506.78;;;16.06;52.33
7662;BME280;30314;48.184;11.510;2023-03-23T10:36:11;95506.69;;;16.03;51.75
7662;BME280;30314;48.184;11.510;2023-03-23T10:38:51;95500.00;;;15.97;51.50
7662;BME280;30314;48.184;11.510;2023-03-23T10:41:19;95477.22;;;15.87;51.61
7662;BME280;30314;48.184;11.510;2023-03-23T10:43:46;95495.88;;;15.87;51.94
7662;BME280;30314;48.184;11.510;2023-03-23T10:49:01;95492.13;;;16.00;52.12
7662;BME280;30314;48.184;11.510;2023-03-23T10:51:33;95501.91;;;15.96;52.79
7662;BME280;30314;48.184;11.510;2023-03-23T10:54:01;95475.81;;;16.02;49.90
7662;BME280;30314;48.184;11.510;2023-03-23T10:56:34;95485.50;;;16.19;49.75
7662;BME280;30314;48.184;11.510;2023-03-23T10:59:11;95491.94;;;16.18;54.10
7662;BME280;30314;48.184;11.510;2023-03-23T11:01:36;95478.47;;;16.02;50.65
7662;BME280;30314;48.184;11.510;2023-03-23T11:04:03;95485.81;;;16.05;50.84
7662;BME280;30314;48.184;11.510;2023-03-23T11:06:30;95494.16;;;16.16;54.42
7662;BME280;30314;48.184;11.510;2023-03-23T11:09:03;95486.84;;;16.25;53.38
7662;BME280;30314;48.184;11.510;2023-03-23T11:11:38;95479.06;;;16.20;54.12
7662;BME280;30314;48.184;11.510;2023-03-23T11:14:29;95501.72;;;16.26;54.35
7662;BME280;30314;48.184;11.510;2023-03-23T11:17:01;95499.41;;;16.37;51.11
7662;BME280;30314;48.184;11.510;2023-03-23T11:19:30;95494.94;;;16.29;53.59
7662;BME280;30314;48.184;11.510;2023-03-23T11:22:07;95473.97;;;16.27;54.13
7662;BME280;30314;48.184;11.510;2023-03-23T11:24:41;95481.31;;;16.30;51.91
7662;BME280;30314;48.184;11.510;2023-03-23T11:27:09;95463.19;;;16.24;52.16
7662;BME280;30314;48.184;11.510;2023-03-23T11:29:47;95466.56;;;16.33;53.62
7662;BME280;30314;48.184;11.510;2023-03-23T11:32:14;95479.78;;;16.54;51.27
7662;BME280;30314;48.184;11.510;2023-03-23T11:34:48;95463.09;;;16.45;52.23
7662;BME280;30314;48.184;11.510;2023-03-23T11:40:01;95482.91;;;16.69;49.79
7662;BME280;30314;48.184;11.510;2023-03-23T11:43:07;95484.75;;;16.56;52.33
7662;BME280;30314;48.184;11.510;2023-03-23T11:45:38;95473.75;;;16.57;51.62
7662;BME280;30314;48.184;11.510;2023-03-23T11:48:26;95480.56;;;16.80;49.34
7662;BME280;30314;48.184;11.510;2023-03-23T11:51:01;95481.69;;;16.66;53.12
7662;BME280;30314;48.184;11.510;2023-03-23T11:53:45;95475.47;;;16.74;49.58
7662;BME280;30314;48.184;11.510;2023-03-23T11:56:33;95474.47;;;16.79;52.13
7662;BME280;30314;48.184;11.510;2023-03-23T11:58:59;95468.03;;;16.68;52.15
7662;BME280;30314;48.184;11.510;2023-03-23T12:07:06;95469.31;;;16.99;52.69
7662;BME280;30314;48.184;11.510;2023-03-23T12:13:15;95455.19;;;17.11;51.63
7662;BME280;30314;48.184;11.510;2023-03-23T12:18:05;95463.25;;;17.27;51.16
7662;BME280;30314;48.184;11.510;2023-03-23T12:31:12;95453.06;;;17.16;49.99
7662;BME280;30314;48.184;11.510;2023-03-23T12:33:49;95462.13;;;17.28;47.05
7662;BME280;30314;48.184;11.510;2023-03-23T12:36:25;95425.06;;;17.10;46.71
7662;BME280;30314;48.184;11.510;2023-03-23T12:39:25;95460.13;;;17.25;46.44
7662;BME280;30314;48.184;11.510;2023-03-23T12:42:08;95449.47;;;17.25;48.61
7662;BME280;30314;48.184;11.510;2023-03-23T12:44:49;95439.75;;;17.32;46.58
7662;BME280;30314;48.184;11.510;2023-03-23T12:47:45;95452.84;;;17.09;47.82
7662;BME280;30314;48.184;11.510;2023-03-23T12:50:31;95461.31;;;16.99;46.96
7662;BME280;30314;48.184;11.510;2023-03-23T12:53:21;95450.66;;;16.86;47.38
7662;BME280;30314;48.184;11.510;2023-03-23T12:56:15;95445.75;;;16.88;46.75
7662;BME280;30314;48.184;11.510;2023-03-23T12:58:46;95418.19;;;16.97;45.83
7662;BME280;30314;48.184;11.510;2023-03-23T13:01:19;95440.41;;;17.01;46.17
7662;BME280;30314;48.184;11.510;2023-03-23T13:06:41;95432.06;;;17.02;47.41
7662;BME280;30314;48.184;11.510;2023-03-23T13:09:16;95433.50;;;17.12;43.71
7662;BME280;30314;48.184;11.510;2023-03-23T13:11:44;95434.34;;;17.29;42.84
7662;BME280;30314;48.184;11.510;2023-03-23T13:23:19;95433.72;;;17.07;51.44
7662;BME280;30314;48.184;11.510;2023-03-23T13:28:49;95418.81;;;17.18;49.38
7662;BME280;30314;48.184;11.510;2023-03-23T13:31:17;95429.97;;;17.37;50.22
7662;BME280;30314;48.184;11.510;2023-03-23T13:33:50;95428.28;;;17.44;48.88
7662;BME280;30314;48.184;11.510;2023-03-23T13:36:24;95424.19;;;17.35;48.50
7662;BME280;30314;48.184;11.510;2023-03-23T13:38:51;95430.56;;;17.30;49.27
7662;BME280;30314;48.184;11.510;2023-03-23T13:41:18;95435.94;;;17.46;51.08
7662;BME280;30314;48.184;11.510;2023-03-23T13:43:47;95419.47;;;17.44;50.41
7662;BME280;30314;48.184;11.510;2023-03-23T13:48:46;95432.69;;;17.53;47.96
7662;BME280;30314;48.184;11.510;2023-03-23T13:54:39;95433.44;;;17.25;49.68
7662;BME280;30314;48.184;11.510;2023-03-23T13:57:21;95424.81;;;17.15;48.45
7662;BME280;30314;48.184;11.510;2023-03-23T13:59:56;95424.66;;;16.96;49.61
7662;BME280;30314;48.184;11.510;2023-03-23T14:02:40;95420.22;;;16.87;50.43
7662;BME280;30314;48.184;11.510;2023-03-23T14:05:34;95416.00;;;16.86;49.95
7662;BME280;30314;48.184;11.510;2023-03-23T14:10:34;95403.22;;;16.80;49.76
7662;BME280;30314;48.184;11.510;2023-03-23T14:13:02;95418.25;;;16.72;49.96
7662;BME280;30314;48.184;11.510;2023-03-23T14:15:29;95419.59;;;16.66;49.14
7662;BME280;30314;48.184;11.510;2023-03-23T14:17:56;95406.72;;;16.68;48.08
7662;BME280;30314;48.184;11.510;2023-03-23T14:20:33;95399.59;;;16.59;51.03
7662;BME280;30314;48.184;11.510;2023-03-23T14:23:01;95395.16;;;16.51;49.75
7662;BME280;30314;48.184;11.510;2023-03-23T14:25:29;95409.59;;;16.50;49.22
7662;BME280;30314;48.184;11.510;2023-03-23T14:27:56;95399.59;;;16.34;50.22
7662;BME280;30314;48.184;11.510;2023-03-23T14:30:24;95414.94;;;16.38;50.32
7662;BME280;30314;48.184;11.510;2023-03-23T14:32:51;95413.13;;;16.29;51.53
7662;BME280;30314;48.184;11.510;2023-03-23T14:35:26;95415.13;;;16.45;49.07
7662;BME280;30314;48.184;11.510;2023-03-23T14:37:53;95410.16;;;16.31;50.90
7662;BME280;30314;48.184;11.510;2023-03-23T14:40:21;95426.03;;;16.40;50.29
7662;BME280;30314;48.184;11.510;2023-03-23T14:42:47;95408.38;;;16.23;51.38
7662;BME280;30314;48.184;11.510;2023-03-23T14:45:19;95389.81;;;16.01;50.98
7662;BME280;30314;48.184;11.510;2023-03-23T14:48:02;95418.16;;;16.18;52.12
7662;BME280;30314;48.184;11.510;2023-03-23T14:50:40;95420.91;;;16.34;51.09
7662;BME280;30314;48.184;11.510;2023-03-23T14:53:38;95420.91;;;16.34;52.28
7662;BME280;30314;48.184;11.510;2023-03-23T14:56:13;95426.56;;;16.20;52.71
7662;BME280;30314;48.184;11.510;2023-03-23T14:58:44;95424.03;;;16.12;51.94